EDT,Max TemperatureF,Mean TemperatureF,Min TemperatureF,Max Dew PointF,MeanDew PointF,Min DewpointF,Max Humidity, Mean Humidity, Min Humidity, Max Sea Level PressureIn, Mean Sea Level PressureIn, Min Sea Level PressureIn, Max VisibilityMiles, Mean VisibilityMiles, Min VisibilityMiles, Max Wind SpeedMPH, Mean Wind SpeedMPH, Max Gust SpeedMPH,PrecipitationIn, CloudCover, Events, WindDirDegrees
2014-4-1,77,64,51,46,40,28,55,41,33,30.08,30.03,30.00,10,10,10,23,9,31,0.00,2,Rain,249
2014-4-2,75,60,46,52,45,37,93,64,40,30.15,30.08,30.03,10,10,10,15,4,22,0.00,4,Rain,75
2014-4-3,73,63,53,61,54,45,100,82,57,30.04,29.92,29.79,10,10,2,23,7,39,0.88,5,Rain,209
2014-4-4,64,53,42,59,52,32,100,84,64,30.03,29.79,29.66,10,10,3,26,10,34,0.42,7,Rain,263
2014-4-5,50,44,37,32,31,28,75,63,50,30.20,30.14,30.03,10,10,10,15,8,22,0.00,5,,353
2014-4-6,62,48,35,37,33,28,81,58,34,30.18,30.07,29.93,10,10,10,13,6,17,0.00,0,,79
2014-4-7,64,56,46,55,48,34,100,77,44,29.93,29.65,29.41,10,9,2,25,9,41,0.02,7,Rain,191
2014-4-8,59,50,42,45,42,39,93,74,48,29.84,29.76,29.64,10,10,7,22,11,34,0.01,7,Rain,297
2014-4-9,62,52,41,45,37,32,93,64,34,30.10,30.01,29.84,10,10,10,13,6,18,0.00,2,,310
2014-4-10,71,56,41,37,36,32,76,47,27,30.15,30.07,29.96,10,10,10,22,9,30,0.00,0,,235
2014-4-11,69,61,53,54,47,39,88,56,42,30.11,30.06,30.03,10,10,10,18,10,28,0.03,3,Rain,259
2014-4-12,78,64,50,54,51,48,100,64,36,30.20,30.10,29.97,10,10,2,13,4,21,0.00,2,,223
2014-4-13,82,72,62,54,50,46,64,47,28,30.07,29.96,29.85,10,10,10,24,11,31,0.00,0,,237
2014-4-14,71,62,50,57,53,50,100,59,50,29.83,29.77,29.70,10,10,4,25,14,39,0.19,6,Rain,234
2014-4-15,50,41,32,50,30,21,100,81,52,30.25,30.01,29.73,10,8,1,17,9,26,0.27,7,Rain-Snow,352
2014-4-16,51,38,24,25,22,18,93,54,30,30.40,30.32,30.24,10,10,10,14,5,20,0.00,0,,105
2014-4-17,68,54,41,39,31,23,87,46,28,30.41,30.33,30.27,10,10,10,12,6,21,0.00,0,,190
2014-4-18,68,54,41,45,38,32,87,53,33,30.34,30.28,30.22,10,10,10,9,3,,0.00,0,,275
2014-4-19,71,58,44,43,39,36,76,50,28,30.29,30.23,30.19,10,10,10,15,6,23,0.00,0,,51
2014-4-20,75,58,41,48,40,36,82,52,29,30.28,30.21,30.14,10,10,10,7,4,,0.00,0,,67
2014-4-21,77,60,44,50,46,43,93,59,29,30.14,30.04,29.90,10,10,10,12,4,17,0.00,0,,252
2014-4-22,71,61,50,59,49,32,94,63,30,29.97,29.86,29.81,10,10,5,16,7,22,0.09,5,Rain,311
2014-4-23,59,47,35,36,33,32,87,55,36,30.12,30.05,29.98,10,10,10,10,5,16,0.00,0,,34
2014-4-24,69,56,44,39,35,32,66,47,28,30.11,30.00,29.82,10,10,10,13,7,20,0.00,1,,107
2014-4-25,64,55,46,59,49,32,100,75,36,29.98,29.81,29.70,10,9,2,20,8,32,0.93,5,Rain,246
2014-4-26,75,58,42,46,44,43,100,61,33,30.00,29.98,29.95,10,10,10,16,7,23,0.00,0,,250
2014-4-27,80,63,46,52,46,43,93,55,32,30.03,29.94,29.85,10,10,10,10,6,18,0.00,0,Rain,112
2014-4-28,68,64,60,64,59,50,100,85,52,29.91,29.80,29.72,10,10,3,16,7,23,0.60,7,Rain,175
2014-4-29,77,65,53,63,56,50,100,79,39,29.95,29.73,29.60,10,10,4,24,9,34,0.83,5,Rain,233
2014-4-30,59,55,51,59,54,46,100,96,72,29.93,29.84,29.80,10,8,3,12,6,20,1.46,8,Rain,190